Time,TemperatureF,DewpointF,PressureIn,WindDirection,WindDirectionDegrees,WindSpeedMPH,WindSpeedGustMPH,Humidity,HourlyPrecipIn,Conditions,Clouds,dailyrainin,SoftwareType,DateUTC
2013-01-12 00:02:00,6.0,5.0,-100.00,North,5,11.0,17.0,94,-99.99,,,0.00,,2013-01-12 07:02:00,
2013-01-12 00:12:00,6.0,5.0,-100.00,North,5,12.0,18.0,94,-99.99,,,0.00,,2013-01-12 07:12:00,
2013-01-12 00:22:00,6.0,5.0,-100.00,North,5,12.0,18.0,94,-99.99,,,0.00,,2013-01-12 07:22:00,
2013-01-12 00:32:00,6.0,5.0,-100.00,North,5,12.0,18.0,94,-99.99,,,0.00,,2013-01-12 07:32:00,
2013-01-12 00:42:00,6.0,5.0,-100.00,North,5,12.0,18.0,94,-99.99,,,0.00,,2013-01-12 07:42:00,
2013-01-12 00:52:00,5.0,4.0,-100.00,North,5,11.0,17.0,95,-99.99,,,0.00,,2013-01-12 07:52:00,
2013-01-12 01:02:00,5.0,4.0,-100.00,North,5,11.0,17.0,95,-99.99,,,0.00,,2013-01-12 08:02:00,
2013-01-12 01:12:00,6.0,4.0,-100.00,North,5,14.0,19.0,94,-99.99,,,0.00,,2013-01-12 08:12:00,
2013-01-12 01:22:00,6.0,4.0,-100.00,North,5,14.0,19.0,94,-99.99,,,0.00,,2013-01-12 08:22:00,
2013-01-12 01:32:00,6.0,4.0,-100.00,North,5,11.0,15.0,91,-99.99,,,0.00,,2013-01-12 08:32:00,
2013-01-12 01:42:00,6.0,4.0,-100.00,North,5,11.0,15.0,91,-99.99,,,0.00,,2013-01-12 08:42:00,
2013-01-12 01:52:00,6.0,4.0,-100.00,North,5,11.0,15.0,91,-99.99,,,0.00,,2013-01-12 08:52:00,
2013-01-12 02:02:00,6.0,4.0,-100.00,North,5,11.0,15.0,91,-99.99,,,0.00,,2013-01-12 09:02:00,
2013-01-12 02:12:00,5.0,3.0,-100.00,North,5,11.0,19.0,91,-99.99,,,0.00,,2013-01-12 09:12:00,
2013-01-12 02:22:00,5.0,3.0,-100.00,North,5,11.0,19.0,91,-99.99,,,0.00,,2013-01-12 09:22:00,
2013-01-12 02:32:00,5.0,3.0,-100.00,North,5,13.0,17.0,91,-99.99,,,0.00,,2013-01-12 09:32:00,
2013-01-12 02:42:00,5.0,3.0,-100.00,North,5,13.0,17.0,91,-99.99,,,0.00,,2013-01-12 09:42:00,
2013-01-12 02:53:00,5.0,3.0,-100.00,North,5,12.0,17.0,91,-99.99,,,0.00,,2013-01-12 09:53:00,
2013-01-12 03:02:00,5.0,3.0,-100.00,North,5,12.0,17.0,91,-99.99,,,0.00,,2013-01-12 10:02:00,
2013-01-12 03:10:00,5.0,3.0,-100.00,North,5,11.0,16.0,91,-99.99,,,0.00,,2013-01-12 10:10:00,
2013-01-12 03:12:00,5.0,3.0,-100.00,North,5,12.0,17.0,91,-99.99,,,0.00,,2013-01-12 10:12:00,
2013-01-12 03:22:00,5.0,3.0,-100.00,North,5,12.0,17.0,91,-99.99,,,0.00,,2013-01-12 10:22:00,
2013-01-12 03:32:00,5.0,3.0,-100.00,North,5,11.0,17.0,91,-99.99,,,0.00,,2013-01-12 10:32:00,
2013-01-12 03:42:00,5.0,3.0,-100.00,North,5,11.0,17.0,91,-99.99,,,0.00,,2013-01-12 10:42:00,
2013-01-12 03:52:00,5.0,3.0,-100.00,North,5,11.0,16.0,91,-99.99,,,0.00,,2013-01-12 10:52:00,
2013-01-12 04:02:00,5.0,3.0,-100.00,North,5,11.0,16.0,91,-99.99,,,0.00,,2013-01-12 11:02:00,
2013-01-12 04:32:00,5.0,3.0,-100.00,North,5,10.0,14.0,91,-99.99,,,-99.99,,2013-01-12 11:32:00,
2013-01-12 04:42:00,5.0,3.0,-100.00,North,5,10.0,14.0,91,-99.99,,,-99.99,,2013-01-12 11:42:00,
2013-01-12 04:52:00,5.0,2.0,-100.00,North,5,8.0,12.0,89,-99.99,,,0.00,,2013-01-12 11:52:00,
2013-01-12 05:03:00,5.0,2.0,-100.00,North,5,8.0,12.0,89,-99.99,,,0.00,,2013-01-12 12:03:00,
2013-01-12 05:12:00,5.0,2.0,-100.00,North,5,8.0,12.0,89,-99.99,,,0.00,,2013-01-12 12:12:00,
2013-01-12 05:22:00,5.0,2.0,-100.00,North,5,8.0,12.0,89,-99.99,,,0.00,,2013-01-12 12:22:00,
2013-01-12 05:32:00,5.0,2.0,-100.00,North,5,4.0,6.0,89,-99.99,,,0.00,,2013-01-12 12:32:00,
2013-01-12 05:42:00,5.0,2.0,-100.00,North,5,4.0,6.0,89,-99.99,,,0.00,,2013-01-12 12:42:00,
2013-01-12 05:52:00,5.0,2.0,-100.00,North,5,4.0,6.0,89,-99.99,,,0.00,,2013-01-12 12:52:00,
2013-01-12 06:12:00,2.0,0.0,-100.00,North,5,6.0,8.0,92,-99.99,,,0.00,,2013-01-12 13:12:00,
2013-01-12 06:22:00,2.0,0.0,-100.00,North,5,6.0,8.0,92,-99.99,,,0.00,,2013-01-12 13:22:00,
2013-01-12 06:33:00,2.0,1.0,-100.00,North,5,7.0,8.0,93,-99.99,,,0.00,,2013-01-12 13:33:00,
2013-01-12 06:43:00,2.0,1.0,-100.00,North,5,7.0,8.0,93,-99.99,,,0.00,,2013-01-12 13:43:00,
2013-01-12 06:53:00,2.0,1.0,-100.00,North,5,7.0,8.0,93,-99.99,,,0.00,,2013-01-12 13:53:00,
2013-01-12 07:02:00,2.0,1.0,-100.00,North,5,7.0,8.0,93,-99.99,,,0.00,,2013-01-12 14:02:00,
2013-01-12 07:12:00,2.0,1.0,-100.00,North,5,7.0,9.0,93,-99.99,,,0.00,,2013-01-12 14:12:00,
2013-01-12 07:22:00,2.0,1.0,-100.00,North,5,7.0,9.0,93,-99.99,,,0.00,,2013-01-12 14:22:00,
2013-01-12 07:33:00,2.0,0.0,-100.00,North,5,6.0,8.0,93,-99.99,,,-99.99,,2013-01-12 14:33:00,
2013-01-12 07:43:00,2.0,0.0,-100.00,North,5,6.0,8.0,93,-99.99,,,-99.99,,2013-01-12 14:43:00,
2013-01-12 07:53:00,2.0,0.0,-100.00,North,5,6.0,8.0,92,-99.99,,,0.00,,2013-01-12 14:53:00,
2013-01-12 08:03:00,2.0,0.0,-100.00,North,5,6.0,8.0,92,-99.99,,,0.00,,2013-01-12 15:03:00,
2013-01-12 08:12:00,1.0,-1.0,-100.00,North,5,6.0,7.0,92,-99.99,,,0.00,,2013-01-12 15:12:00,
2013-01-12 08:22:00,1.0,-1.0,-100.00,North,5,6.0,7.0,92,-99.99,,,0.00,,2013-01-12 15:22:00,
2013-01-12 08:33:00,2.0,0.0,-100.00,North,5,7.0,9.0,92,-99.99,,,0.00,,2013-01-12 15:33:00,
2013-01-12 08:43:00,2.0,0.0,-100.00,North,5,7.0,9.0,92,-99.99,,,0.00,,2013-01-12 15:43:00,
2013-01-12 08:53:00,2.0,0.0,-100.00,North,5,1.0,4.0,92,-99.99,,,0.00,,2013-01-12 15:53:00,
2013-01-12 09:03:00,2.0,0.0,-100.00,North,5,1.0,4.0,92,-99.99,,,0.00,,2013-01-12 16:03:00,
2013-01-12 09:12:00,1.0,-1.0,-100.00,North,5,1.0,2.0,93,-99.99,,,0.00,,2013-01-12 16:12:00,
2013-01-12 09:23:00,1.0,-1.0,-100.00,North,5,1.0,2.0,93,-99.99,,,0.00,,2013-01-12 16:23:00,
2013-01-12 09:33:00,2.0,0.0,-100.00,North,5,3.0,5.0,93,-99.99,,,0.00,,2013-01-12 16:33:00,
2013-01-12 09:42:00,2.0,0.0,-100.00,North,5,3.0,5.0,93,-99.99,,,0.00,,2013-01-12 16:42:00,
2013-01-12 09:53:00,1.0,-1.0,-100.00,NNE,30,5.0,6.0,92,-99.99,,,0.00,,2013-01-12 16:53:00,
2013-01-12 10:02:00,1.0,-1.0,-100.00,NNE,30,5.0,6.0,92,-99.99,,,0.00,,2013-01-12 17:02:00,
2013-01-12 10:12:00,5.0,2.0,-100.00,North,0,1.0,6.0,90,-99.99,,,0.00,,2013-01-12 17:12:00,
2013-01-12 10:22:00,5.0,2.0,-100.00,North,0,1.0,6.0,90,-99.99,,,0.00,,2013-01-12 17:22:00,
2013-01-12 10:33:00,6.0,3.0,-100.00,North,0,2.0,3.0,87,-99.99,,,0.00,,2013-01-12 17:33:00,
2013-01-12 10:40:00,8.0,4.0,-100.00,North,5,0.0,1.0,84,-99.99,,,0.00,,2013-01-12 17:40:00,
2013-01-12 10:42:00,6.0,3.0,-100.00,North,0,2.0,3.0,87,-99.99,,,0.00,,2013-01-12 17:42:00,
2013-01-12 10:53:00,6.0,3.0,-100.00,North,5,0.0,2.0,86,-99.99,,,0.00,,2013-01-12 17:53:00,
2013-01-12 11:03:00,6.0,3.0,-100.00,North,5,0.0,2.0,86,-99.99,,,0.00,,2013-01-12 18:03:00,
2013-01-12 11:12:00,8.0,4.0,-100.00,North,5,0.0,1.0,84,-99.99,,,0.00,,2013-01-12 18:12:00,
2013-01-12 11:23:00,8.0,4.0,-100.00,North,5,0.0,1.0,84,-99.99,,,0.00,,2013-01-12 18:23:00,
2013-01-12 11:33:00,8.0,4.0,-100.00,North,5,0.0,1.0,84,-99.99,,,0.00,,2013-01-12 18:33:00,
2013-01-12 11:52:00,7.0,3.0,-100.00,North,5,2.0,4.0,85,-99.99,,,0.00,,2013-01-12 18:52:00,
2013-01-12 12:03:00,7.0,3.0,-100.00,North,5,2.0,4.0,85,-99.99,,,0.00,,2013-01-12 19:03:00,
2013-01-12 12:12:00,9.0,5.0,-100.00,North,10,0.0,1.0,82,-99.99,,,0.00,,2013-01-12 19:12:00,
2013-01-12 12:23:00,9.0,5.0,-100.00,North,10,0.0,1.0,82,-99.99,,,0.00,,2013-01-12 19:23:00,
2013-01-12 12:33:00,9.0,5.0,-100.00,North,10,0.0,1.0,82,-99.99,,,0.00,,2013-01-12 19:33:00,
2013-01-12 12:52:00,9.0,4.0,-100.00,North,10,0.0,2.0,80,-99.99,,,0.00,,2013-01-12 19:52:00,
2013-01-12 13:03:00,9.0,4.0,-100.00,North,10,0.0,2.0,80,-99.99,,,0.00,,2013-01-12 20:03:00,
2013-01-12 13:12:00,8.0,4.0,-100.00,North,10,0.0,1.0,80,-99.99,,,0.00,,2013-01-12 20:12:00,
2013-01-12 13:22:00,8.0,4.0,-100.00,North,10,0.0,1.0,80,-99.99,,,0.00,,2013-01-12 20:22:00,
2013-01-12 13:33:00,8.0,4.0,-100.00,North,10,0.0,1.0,80,-99.99,,,0.00,,2013-01-12 20:33:00,
2013-01-12 13:40:00,13.0,7.0,-100.00,North,10,1.0,2.0,75,-99.99,,,0.00,,2013-01-12 20:40:00,
2013-01-12 13:42:00,8.0,4.0,-100.00,North,10,0.0,1.0,80,-99.99,,,0.00,,2013-01-12 20:42:00,
2013-01-12 13:53:00,12.0,6.0,-100.00,South,190,0.0,1.0,78,-99.99,,,0.00,,2013-01-12 20:53:00,
2013-01-12 14:03:00,12.0,6.0,-100.00,South,190,0.0,1.0,78,-99.99,,,0.00,,2013-01-12 21:03:00,
2013-01-12 14:12:00,13.0,7.0,-100.00,North,10,1.0,2.0,75,-99.99,,,0.00,,2013-01-12 21:12:00,
2013-01-12 14:22:00,13.0,7.0,-100.00,North,10,1.0,2.0,75,-99.99,,,0.00,,2013-01-12 21:22:00,
2013-01-12 14:33:00,13.0,7.0,-100.00,North,10,1.0,2.0,75,-99.99,,,0.00,,2013-01-12 21:33:00,
2013-01-12 14:52:00,13.0,6.0,-100.00,North,10,0.0,1.0,75,-99.99,,,0.00,,2013-01-12 21:52:00,
2013-01-12 15:03:00,13.0,6.0,-100.00,North,10,0.0,1.0,75,-99.99,,,0.00,,2013-01-12 22:03:00,
2013-01-12 15:12:00,13.0,6.0,-100.00,NNE,15,1.0,1.0,75,-99.99,,,0.00,,2013-01-12 22:12:00,
2013-01-12 15:23:00,13.0,6.0,-100.00,NNE,15,1.0,1.0,75,-99.99,,,0.00,,2013-01-12 22:23:00,
2013-01-12 15:33:00,11.0,5.0,-100.00,NNE,15,1.0,1.0,76,-99.99,,,-99.99,,2013-01-12 22:33:00,
2013-01-12 15:43:00,11.0,5.0,-100.00,NNE,15,1.0,1.0,76,-99.99,,,-99.99,,2013-01-12 22:43:00,
2013-01-12 15:52:00,11.0,5.0,-100.00,NNE,15,1.0,1.0,76,-99.99,,,-99.99,,2013-01-12 22:52:00,
2013-01-12 16:03:00,11.0,5.0,-100.00,NNE,15,1.0,1.0,76,-99.99,,,-99.99,,2013-01-12 23:03:00,
2013-01-12 16:12:00,9.0,4.0,-100.00,NNE,20,4.0,4.0,79,-99.99,,,0.00,,2013-01-12 23:12:00,
2013-01-12 16:22:00,9.0,4.0,-100.00,NNE,20,4.0,4.0,79,-99.99,,,0.00,,2013-01-12 23:22:00,
2013-01-12 16:33:00,9.0,4.0,-100.00,NNE,20,4.0,4.0,80,-99.99,,,0.00,,2013-01-12 23:33:00,
2013-01-12 16:53:00,8.0,3.0,-100.00,NNE,25,6.0,6.0,81,-99.99,,,0.00,,2013-01-12 23:53:00,
2013-01-12 17:03:00,8.0,3.0,-100.00,NNE,25,6.0,6.0,81,-99.99,,,0.00,,2013-01-13 00:03:00,
2013-01-12 17:12:00,8.0,3.0,-100.00,NE,40,5.0,5.0,79,-99.99,,,0.00,,2013-01-13 00:12:00,
2013-01-12 17:23:00,8.0,3.0,-100.00,NE,40,5.0,5.0,79,-99.99,,,0.00,,2013-01-13 00:23:00,
2013-01-12 17:33:00,7.0,3.0,-100.00,NE,40,6.0,7.0,82,-99.99,,,0.00,,2013-01-13 00:33:00,
2013-01-12 17:43:00,7.0,3.0,-100.00,NE,40,6.0,7.0,82,-99.99,,,0.00,,2013-01-13 00:43:00,
2013-01-12 17:52:00,7.0,3.0,-100.00,NE,35,7.0,8.0,83,-99.99,,,0.00,,2013-01-13 00:52:00,
2013-01-12 18:03:00,7.0,3.0,-100.00,NE,35,7.0,8.0,83,-99.99,,,0.00,,2013-01-13 01:03:00,
2013-01-12 18:12:00,7.0,3.0,-100.00,NE,35,7.0,8.0,83,-99.99,,,0.00,,2013-01-13 01:12:00,
2013-01-12 18:22:00,7.0,3.0,-100.00,NE,35,7.0,8.0,83,-99.99,,,0.00,,2013-01-13 01:22:00,
2013-01-12 18:33:00,4.0,1.0,-100.00,NE,35,4.0,6.0,85,-99.99,,,0.00,,2013-01-13 01:33:00,
2013-01-12 18:43:00,4.0,1.0,-100.00,NE,35,4.0,6.0,85,-99.99,,,0.00,,2013-01-13 01:43:00,
2013-01-12 18:52:00,4.0,1.0,-100.00,NE,35,4.0,6.0,85,-99.99,,,0.00,,2013-01-13 01:52:00,
2013-01-12 19:02:00,4.0,1.0,-100.00,NE,35,4.0,6.0,85,-99.99,,,0.00,,2013-01-13 02:02:00,
2013-01-12 19:12:00,5.0,2.0,-100.00,NE,35,7.0,8.0,86,-99.99,,,0.00,,2013-01-13 02:12:00,
2013-01-12 19:22:00,5.0,2.0,-100.00,NE,35,7.0,8.0,86,-99.99,,,0.00,,2013-01-13 02:22:00,
2013-01-12 19:32:00,3.0,0.0,-100.00,North,0,1.0,6.0,85,-99.99,,,0.00,,2013-01-13 02:32:00,
2013-01-12 19:43:00,3.0,0.0,-100.00,North,0,1.0,6.0,85,-99.99,,,0.00,,2013-01-13 02:43:00,
2013-01-12 19:52:00,3.0,0.0,-100.00,North,0,1.0,6.0,85,-99.99,,,0.00,,2013-01-13 02:52:00,
2013-01-12 20:02:00,3.0,0.0,-100.00,North,0,1.0,6.0,85,-99.99,,,0.00,,2013-01-13 03:02:00,
2013-01-12 20:12:00,1.0,-2.0,-100.00,North,5,0.0,1.0,89,-99.99,,,0.00,,2013-01-13 03:12:00,
2013-01-12 20:22:00,1.0,-2.0,-100.00,North,5,0.0,1.0,89,-99.99,,,0.00,,2013-01-13 03:22:00,
2013-01-12 20:33:00,1.0,-1.0,-100.00,NNE,30,4.0,4.0,90,-99.99,,,0.00,,2013-01-13 03:33:00,
2013-01-12 20:43:00,1.0,-1.0,-100.00,NNE,30,4.0,4.0,90,-99.99,,,0.00,,2013-01-13 03:43:00,
2013-01-12 20:52:00,-1.0,-3.0,-100.00,North,5,1.0,2.0,91,-99.99,,,0.00,,2013-01-13 03:52:00,
2013-01-12 21:02:00,-1.0,-3.0,-100.00,North,5,1.0,2.0,91,-99.99,,,0.00,,2013-01-13 04:02:00,
2013-01-12 21:12:00,-1.0,-3.0,-100.00,North,5,2.0,2.0,92,-99.99,,,-99.99,,2013-01-13 04:12:00,
2013-01-12 21:22:00,-1.0,-3.0,-100.00,North,5,2.0,2.0,92,-99.99,,,-99.99,,2013-01-13 04:22:00,
2013-01-12 21:33:00,-2.0,-3.0,-100.00,North,5,6.0,7.0,92,-99.99,,,0.00,,2013-01-13 04:33:00,
2013-01-12 21:42:00,-2.0,-3.0,-100.00,North,5,6.0,7.0,92,-99.99,,,0.00,,2013-01-13 04:42:00,
2013-01-12 21:52:00,-2.0,-3.0,-100.00,North,5,6.0,7.0,92,-99.99,,,0.00,,2013-01-13 04:52:00,
2013-01-12 22:03:00,-2.0,-3.0,-100.00,North,5,6.0,7.0,92,-99.99,,,0.00,,2013-01-13 05:03:00,
2013-01-12 22:12:00,1.0,-1.0,-100.00,North,5,4.0,6.0,93,-99.99,,,0.00,,2013-01-13 05:12:00,
2013-01-12 22:22:00,1.0,-1.0,-100.00,North,5,4.0,6.0,93,-99.99,,,0.00,,2013-01-13 05:22:00,
2013-01-12 22:32:00,1.0,-1.0,-100.00,North,5,4.0,6.0,93,-99.99,,,0.00,,2013-01-13 05:32:00,
2013-01-12 22:42:00,1.0,-1.0,-100.00,North,5,4.0,6.0,93,-99.99,,,0.00,,2013-01-13 05:42:00,
2013-01-12 22:52:00,4.0,2.0,-100.00,North,5,6.0,8.0,93,-99.99,,,0.00,,2013-01-13 05:52:00,
2013-01-12 23:03:00,4.0,2.0,-100.00,North,5,6.0,8.0,93,-99.99,,,0.00,,2013-01-13 06:03:00,
2013-01-12 23:12:00,3.0,1.0,-100.00,North,0,9.0,10.0,94,-99.99,,,0.00,,2013-01-13 06:12:00,
2013-01-12 23:22:00,3.0,1.0,-100.00,North,0,9.0,10.0,94,-99.99,,,0.00,,2013-01-13 06:22:00,
2013-01-12 23:32:00,3.0,2.0,-100.00,North,5,6.0,9.0,94,-99.99,,,0.00,,2013-01-13 06:32:00,
2013-01-12 23:42:00,3.0,2.0,-100.00,North,5,6.0,9.0,94,-99.99,,,0.00,,2013-01-13 06:42:00,
2013-01-12 23:52:00,1.0,0.0,-100.00,North,5,3.0,5.0,94,-99.99,,,0.00,,2013-01-13 06:52:00,